Time;durP1;ratioP1;P1;durP2;ratioP2;P2;SDS_P1;SDS_P2;PMS_P1;PMS_P2;Temp;Humidity;BMP_temperature;BMP_pressure;BME280_temperature;BME280_humidity;BME280_pressure;Samples;Min_cycle;Max_cycle;Signal;HPM_P1;HPM_P2
2023/12/13 00:01:23;;;;;;;1.77;1.67;;;;;;;13.26;61.91;97331.53;8361266;23;20202;-77
2023/12/13 00:04:44;;;;;;;2.13;1.80;;;;;;;13.49;60.89;97340.16;8360919;23;20213;-78
2023/12/13 00:08:06;;;;;;;1.70;1.60;;;;;;;14.37;59.04;97342.91;8362690;23;20730;-78
2023/12/13 00:11:27;;;;;;;2.07;1.83;;;;;;;14.42;58.95;97352.94;8361534;23;20210;-78
2023/12/13 00:14:48;;;;;;;3.67;1.70;;;;;;;13.82;61.17;97325.50;8362773;23;20269;-79
2023/12/13 00:18:11;;;;;;;2.33;2.17;;;;;;;14.20;60.75;97328.72;8361867;23;20558;-78
2023/12/13 00:21:33;;;;;;;2.33;1.90;;;;;;;14.43;60.48;97349.16;8360827;23;20750;-78
2023/12/13 00:24:55;;;;;;;2.87;1.57;;;;;;;14.50;60.24;97341.59;8363078;23;20255;-79
2023/12/13 00:28:16;;;;;;;2.43;1.87;;;;;;;14.16;60.99;97335.72;8362630;23;20182;-78
2023/12/13 00:31:38;;;;;;;2.10;1.73;;;;;;;14.09;60.43;97326.22;8362003;23;20239;-78
2023/12/13 00:35:00;;;;;;;2.10;2.00;;;;;;;14.14;60.22;97332.47;8362255;23;20642;-79
2023/12/13 00:38:22;;;;;;;1.40;1.40;;;;;;;14.06;60.39;97318.59;8361407;23;20344;-79
2023/12/13 00:41:43;;;;;;;2.57;1.90;;;;;;;13.82;60.29;97312.78;8360119;23;20216;-78
2023/12/13 00:45:06;;;;;;;2.23;1.77;;;;;;;13.35;62.54;97309.19;8362885;23;20497;-78
2023/12/13 00:48:28;;;;;;;2.50;2.30;;;;;;;13.02;63.32;97320.25;8361875;23;20217;-78
2023/12/13 00:51:50;;;;;;;3.00;1.80;;;;;;;13.37;62.24;97315.16;8362151;23;20568;-77
2023/12/13 00:55:12;;;;;;;2.07;1.83;;;;;;;13.29;62.04;97295.84;8360978;23;20272;-78
2023/12/13 00:58:34;;;;;;;1.80;1.70;;;;;;;13.34;62.27;97309.44;8360676;23;20186;-77
2023/12/13 01:01:55;;;;;;;1.83;1.73;;;;;;;13.02;63.35;97319.41;8362531;23;20662;-78
2023/12/13 01:05:17;;;;;;;2.53;2.00;;;;;;;13.11;62.08;97317.91;8362849;23;20205;-78
2023/12/13 01:08:40;;;;;;;3.67;2.00;;;;;;;13.13;62.62;97329.28;8361553;23;20631;-79
2023/12/13 01:12:02;;;;;;;3.70;2.30;;;;;;;13.24;62.28;97312.88;8361492;23;20244;-79
2023/12/13 01:15:23;;;;;;;1.80;1.70;;;;;;;13.37;61.36;97311.59;8361869;23;20181;-78
2023/12/13 01:18:45;;;;;;;2.63;1.80;;;;;;;13.51;60.95;97321.75;8360192;23;20220;-78
2023/12/13 01:22:08;;;;;;;1.97;1.87;;;;;;;13.25;60.75;97325.34;8362790;23;20340;-78
2023/12/13 01:25:31;;;;;;;1.77;1.67;;;;;;;13.21;60.25;97291.72;8362738;23;20682;-78
2023/12/13 01:28:52;;;;;;;2.53;1.47;;;;;;;13.07;60.77;97316.75;8361121;23;20260;-78
2023/12/13 01:32:14;;;;;;;2.23;2.03;;;;;;;13.05;60.79;97313.50;8359997;23;20233;-78
2023/12/13 01:35:35;;;;;;;1.90;1.60;;;;;;;13.15;60.61;97305.50;8360938;23;20217;-79
2023/12/13 01:38:57;;;;;;;1.57;1.47;;;;;;;13.36;59.61;97308.09;8361664;23;20563;-78
2023/12/13 01:42:19;;;;;;;2.53;1.70;;;;;;;13.41;59.40;97301.91;8360754;23;20335;-78
2023/12/13 01:45:41;;;;;;;1.80;1.50;;;;;;;13.37;58.92;97273.72;8362153;23;20297;-78
2023/12/13 01:49:05;;;;;;;2.00;1.80;;;;;;;13.25;59.33;97300.16;8360783;23;20682;-77
2023/12/13 01:52:28;;;;;;;1.63;1.53;;;;;;;13.31;59.49;97302.66;8361299;23;20559;-78
2023/12/13 01:55:49;;;;;;;4.40;1.70;;;;;;;13.24;59.18;97293.09;8359767;23;20635;-78
2023/12/13 01:59:13;;;;;;;4.07;1.60;;;;;;;13.13;59.04;97272.44;8361061;23;20275;-78
2023/12/13 02:02:34;;;;;;;1.70;1.60;;;;;;;13.60;57.99;97289.59;8364169;23;20538;-78
2023/12/13 02:05:56;;;;;;;2.87;1.87;;;;;;;13.70;57.41;97295.06;8363996;23;20284;-78
2023/12/13 02:09:17;;;;;;;1.60;1.50;;;;;;;13.49;58.42;97285.16;8362512;23;20630;-78
2023/12/13 02:12:39;;;;;;;1.60;1.50;;;;;;;13.44;58.38;97285.97;8362145;23;20292;-78
2023/12/13 02:16:02;;;;;;;1.50;1.40;;;;;;;13.43;58.54;97280.78;8362927;23;20666;-78
2023/12/13 02:19:24;;;;;;;1.70;1.60;;;;;;;12.91;59.73;97286.03;8362868;23;20205;-78
2023/12/13 02:22:47;;;;;;;1.70;1.60;;;;;;;13.46;58.56;97281.09;8363651;23;20280;-77
2023/12/13 02:26:10;;;;;;;2.97;1.70;;;;;;;13.87;57.42;97276.75;8363449;23;20292;-77
2023/12/13 02:29:31;;;;;;;4.80;1.90;;;;;;;13.79;56.99;97271.81;8362150;23;20283;-77
2023/12/13 02:32:53;;;;;;;3.13;1.50;;;;;;;13.87;56.36;97282.19;8362661;23;20697;-77
2023/12/13 02:36:14;;;;;;;2.17;1.60;;;;;;;13.83;56.79;97268.34;8363644;23;20259;-78
2023/12/13 02:39:37;;;;;;;2.60;1.70;;;;;;;13.79;56.59;97275.34;8362244;23;20291;-78
2023/12/13 02:42:58;;;;;;;4.70;1.97;;;;;;;13.92;56.22;97265.97;8363051;23;20626;-78
2023/12/13 02:46:20;;;;;;;1.70;1.60;;;;;;;13.95;55.83;97254.59;8362781;23;20229;-78
2023/12/13 02:49:42;;;;;;;2.37;1.63;;;;;;;13.81;56.21;97262.34;8362539;23;20189;-77
2023/12/13 02:53:03;;;;;;;2.17;1.50;;;;;;;13.87;56.05;97252.38;8362617;23;20324;-77
2023/12/13 02:56:26;;;;;;;2.37;1.70;;;;;;;14.06;55.30;97261.69;8363951;23;20178;-78
2023/12/13 02:59:48;;;;;;;2.63;1.63;;;;;;;14.04;55.33;97258.44;8362408;23;20257;-77
2023/12/13 03:03:09;;;;;;;9.50;3.40;;;;;;;13.97;55.89;97260.53;8363695;23;20213;-78
2023/12/13 03:06:31;;;;;;;2.27;1.80;;;;;;;13.46;57.83;97258.63;8362045;23;20230;-79
2023/12/13 03:09:52;;;;;;;2.13;1.63;;;;;;;14.09;55.74;97247.63;8361199;23;20613;-77
2023/12/13 03:13:15;;;;;;;1.97;1.77;;;;;;;13.98;56.25;97241.31;8362823;23;20214;-78
2023/12/13 03:16:37;;;;;;;1.73;1.63;;;;;;;13.91;56.33;97242.63;8363262;23;20291;-77
2023/12/13 03:19:58;;;;;;;2.57;1.60;;;;;;;13.61;57.05;97248.72;8361837;23;20264;-77
2023/12/13 03:23:20;;;;;;;2.20;1.57;;;;;;;13.67;57.11;97253.09;8363954;23;20213;-77
2023/12/13 03:26:41;;;;;;;3.03;1.70;;;;;;;13.67;57.14;97246.84;8364563;23;20202;-77
2023/12/13 03:30:05;;;;;;;3.57;1.90;;;;;;;13.86;56.98;97246.13;8362867;23;20220;-78
2023/12/13 03:33:26;;;;;;;4.10;1.80;;;;;;;13.94;56.17;97223.16;8363967;23;20186;-78
2023/12/13 03:36:48;;;;;;;1.60;1.50;;;;;;;13.85;56.53;97212.00;8363634;23;20243;-79
2023/12/13 03:40:10;;;;;;;3.27;1.60;;;;;;;13.28;58.54;97242.81;8360459;23;20213;-78
2023/12/13 03:43:32;;;;;;;2.33;2.13;;;;;;;13.38;59.27;97248.28;8361691;23;20189;-78
2023/12/13 03:46:55;;;;;;;2.73;2.10;;;;;;;12.69;61.17;97250.09;8361998;23;20301;-78
2023/12/13 03:50:17;;;;;;;5.23;1.90;;;;;;;13.12;60.32;97268.13;8362463;23;20206;-75
2023/12/13 03:53:39;;;;;;;3.40;2.30;;;;;;;13.20;60.57;97262.22;8363363;23;20648;-77
2023/12/13 03:57:00;;;;;;;3.53;2.00;;;;;;;13.45;59.75;97248.88;8360780;23;20268;-76
2023/12/13 04:00:22;;;;;;;2.23;1.80;;;;;;;13.53;59.57;97249.22;8361120;23;20284;-76
2023/12/13 04:03:45;;;;;;;2.23;1.80;;;;;;;13.64;59.65;97244.66;8362869;23;20633;-77
2023/12/13 04:07:08;;;;;;;3.57;1.97;;;;;;;13.65;59.25;97243.59;8361701;23;20288;-76
2023/12/13 04:10:29;;;;;;;2.27;1.90;;;;;;;13.46;59.72;97235.06;8362650;23;20574;-76
2023/12/13 04:13:51;;;;;;;1.80;1.70;;;;;;;13.83;58.73;97241.25;8363445;23;20284;-77
2023/12/13 04:17:12;;;;;;;3.77;2.20;;;;;;;13.86;57.92;97220.97;8362431;23;20648;-76
2023/12/13 04:20:35;;;;;;;6.57;2.00;;;;;;;13.86;57.74;97223.66;8359781;23;20333;-76
2023/12/13 04:23:56;;;;;;;4.00;1.70;;;;;;;13.69;57.66;97221.13;8361483;23;20251;-76
2023/12/13 04:27:18;;;;;;;5.33;2.20;;;;;;;13.52;58.38;97220.47;8362477;23;20209;-76
2023/12/13 04:30:39;;;;;;;3.73;2.40;;;;;;;13.22;59.16;97217.59;8361752;23;20243;-77
2023/12/13 04:34:01;;;;;;;4.97;3.67;;;;;;;13.31;58.95;97218.75;8361880;23;20275;-76
2023/12/13 04:37:24;;;;;;;6.03;3.30;;;;;;;12.88;59.87;97216.22;8362966;23;20178;-76
2023/12/13 04:40:45;;;;;;;3.27;2.87;;;;;;;12.89;60.44;97208.91;8359843;23;20213;-77
2023/12/13 04:44:08;;;;;;;4.27;2.70;;;;;;;13.17;59.85;97214.84;8361129;23;20568;-76
2023/12/13 04:47:29;;;;;;;3.23;2.13;;;;;;;13.30;58.99;97219.00;8362211;23;20212;-76
2023/12/13 04:50:51;;;;;;;4.57;2.43;;;;;;;13.06;59.67;97206.91;8361086;23;20284;-76
2023/12/13 04:54:14;;;;;;;2.47;1.90;;;;;;;13.19;59.25;97201.88;8362141;23;20275;-76
2023/12/13 04:57:35;;;;;;;4.60;1.93;;;;;;;12.90;59.39;97178.09;8361409;23;20491;-76
2023/12/13 05:00:57;;;;;;;3.53;1.93;;;;;;;12.63;59.82;97180.03;8360831;23;20236;-76
2023/12/13 05:04:18;;;;;;;2.53;2.00;;;;;;;12.59;60.77;97182.44;8362298;23;20274;-76
2023/12/13 05:07:39;;;;;;;3.23;2.37;;;;;;;12.65;60.96;97192.22;8362692;23;20233;-76
2023/12/13 05:11:02;;;;;;;3.50;2.40;;;;;;;12.84;60.01;97179.94;8361028;23;20229;-76
2023/12/13 05:14:24;;;;;;;3.53;2.80;;;;;;;12.50;60.88;97175.03;8361339;23;20232;-76
2023/12/13 05:17:45;;;;;;;2.30;2.10;;;;;;;12.78;59.84;97161.22;8360600;23;20324;-76
2023/12/13 05:21:07;;;;;;;3.60;1.77;;;;;;;12.83;59.36;97174.78;8361355;23;20563;-75
2023/12/13 05:24:28;;;;;;;2.27;2.07;;;;;;;12.48;60.61;97171.78;8362512;23;20267;-77
2023/12/13 05:27:51;;;;;;;2.80;1.90;;;;;;;12.13;61.30;97180.38;8362025;23;20283;-76
2023/12/13 05:31:18;;;;;;;5.73;2.50;;;;;;;11.91;60.87;97167.94;8360722;23;20441;-76
2023/12/13 05:34:40;;;;;;;5.10;2.40;;;;;;;12.09;61.32;97179.22;8363283;23;20455;-76
2023/12/13 05:38:01;;;;;;;5.47;3.67;;;;;;;12.44;60.65;97174.19;8362603;23;20205;-76
2023/12/13 05:41:23;;;;;;;7.50;2.50;;;;;;;12.29;61.11;97155.13;8361952;23;20330;-76
2023/12/13 05:44:46;;;;;;;5.63;2.30;;;;;;;12.33;61.09;97155.44;8363472;23;20279;-76
2023/12/13 05:48:08;;;;;;;4.43;2.50;;;;;;;12.16;61.41;97154.72;8363269;23;20208;-76
2023/12/13 05:51:29;;;;;;;2.80;2.00;;;;;;;12.21;61.13;97155.59;8361414;23;20213;-76
2023/12/13 05:54:51;;;;;;;3.57;2.40;;;;;;;12.29;60.64;97141.63;8362560;23;20333;-77
2023/12/13 05:58:12;;;;;;;2.80;2.30;;;;;;;12.49;60.25;97158.00;8362269;23;20619;-75
2023/12/13 06:01:35;;;;;;;7.93;2.43;;;;;;;12.22;61.01;97157.22;8362834;23;20236;-76
2023/12/13 06:04:57;;;;;;;3.37;2.47;;;;;;;12.11;61.26;97146.56;8363199;23;20267;-76
2023/12/13 06:08:18;;;;;;;3.40;2.20;;;;;;;11.62;63.76;97139.53;8362176;23;20229;-76
2023/12/13 06:11:39;;;;;;;3.70;2.97;;;;;;;12.24;61.79;97132.63;8362317;23;20213;-77
2023/12/13 06:15:01;;;;;;;3.53;2.50;;;;;;;12.47;61.22;97143.94;8363501;23;20259;-76
2023/12/13 06:18:24;;;;;;;3.17;2.93;;;;;;;12.02;61.08;97142.69;8366398;23;20186;-77
2023/12/13 06:21:45;;;;;;;3.03;2.80;;;;;;;12.22;61.40;97143.69;8362582;23;20287;-75
2023/12/13 06:25:07;;;;;;;4.03;2.50;;;;;;;12.07;61.59;97140.03;8363149;23;20196;-75
2023/12/13 06:28:29;;;;;;;3.03;2.30;;;;;;;12.22;61.40;97132.88;8362644;23;20638;-76
2023/12/13 06:31:50;;;;;;;3.27;2.80;;;;;;;12.07;61.79;97148.97;8363546;23;20542;-75
2023/12/13 06:35:14;;;;;;;2.60;2.40;;;;;;;11.50;64.50;97147.72;8363483;23;20193;-77
2023/12/13 06:38:35;;;;;;;8.10;4.80;;;;;;;12.02;62.94;97134.56;8362110;23;20178;-76
2023/12/13 06:41:57;;;;;;;5.07;2.73;;;;;;;12.48;61.43;97129.34;8363641;23;20245;-80
2023/12/13 06:45:20;;;;;;;5.77;3.67;;;;;;;12.70;61.23;97138.16;8360171;23;20186;-78
2023/12/13 06:48:42;;;;;;;3.23;2.23;;;;;;;11.93;61.28;97145.00;8360319;23;20613;-76
2023/12/13 06:52:05;;;;;;;3.20;2.30;;;;;;;12.11;62.18;97135.75;8362259;23;20233;-76
2023/12/13 06:55:26;;;;;;;2.67;2.20;;;;;;;12.12;62.16;97142.78;8363054;23;20195;-76
2023/12/13 06:58:49;;;;;;;3.10;2.90;;;;;;;12.05;62.40;97139.47;8362712;23;20328;-76
2023/12/13 07:02:10;;;;;;;3.07;2.60;;;;;;;12.10;62.50;97134.13;8363327;23;20206;-78
2023/12/13 07:05:32;;;;;;;4.07;2.70;;;;;;;12.57;61.15;97135.91;8363453;23;20553;-76
2023/12/13 07:08:56;;;;;;;7.50;3.20;;;;;;;12.58;61.74;97120.53;8362390;23;20313;-75
2023/12/13 07:12:17;;;;;;;2.77;2.57;;;;;;;12.46;61.39;97127.97;8362508;23;20205;-76
2023/12/13 07:15:38;;;;;;;4.47;2.90;;;;;;;12.96;60.82;97120.28;8363195;23;20275;-76
2023/12/13 07:19:00;;;;;;;2.90;2.47;;;;;;;13.31;59.96;97134.84;8361348;23;20227;-76
2023/12/13 07:22:21;;;;;;;3.63;2.53;;;;;;;13.53;58.81;97130.09;8362632;23;20233;-76
2023/12/13 07:25:44;;;;;;;5.07;2.20;;;;;;;13.64;58.40;97118.19;8363075;23;20263;-77
2023/12/13 07:29:06;;;;;;;2.67;2.30;;;;;;;13.53;58.69;97121.13;8360889;23;20716;-76
2023/12/13 07:32:27;;;;;;;5.13;3.00;;;;;;;13.06;59.73;97123.88;8362911;23;20279;-76
2023/12/13 07:35:49;;;;;;;6.03;3.23;;;;;;;13.44;58.80;97123.53;8362905;23;20611;-75
2023/12/13 07:39:10;;;;;;;2.40;2.10;;;;;;;13.26;58.71;97115.88;8361651;23;20186;-77
2023/12/13 07:42:33;;;;;;;3.80;2.77;;;;;;;13.48;57.98;97105.69;8362673;23;20531;-76
2023/12/13 07:45:55;;;;;;;7.80;2.90;;;;;;;13.74;58.09;97103.91;8362783;23;20196;-76
2023/12/13 07:49:17;;;;;;;5.87;2.93;;;;;;;13.54;57.72;97076.72;8362121;23;20186;-79
2023/12/13 07:52:38;;;;;;;6.10;3.60;;;;;;;13.97;57.73;97106.09;8362540;23;20205;-77
2023/12/13 07:56:00;;;;;;;6.37;3.63;;;;;;;13.97;57.02;97106.94;8362840;23;20264;-79
2023/12/13 07:59:23;;;;;;;5.60;3.63;;;;;;;14.02;57.23;97114.25;8361999;23;20212;-76
2023/12/13 08:02:44;;;;;;;3.30;3.00;;;;;;;14.15;56.89;97097.50;8362661;23;20214;-77
2023/12/13 08:06:11;;;;;;;2.60;2.13;;;;;;;13.98;56.89;97105.84;8362748;23;20185;-77
2023/12/13 08:09:33;;;;;;;4.53;2.43;;;;;;;13.79;57.98;97115.53;8361511;23;20170;-76
2023/12/13 08:12:54;;;;;;;5.53;2.47;;;;;;;14.04;56.92;97118.31;8362425;23;20284;-78
2023/12/13 08:16:17;;;;;;;4.73;2.70;;;;;;;13.65;57.89;97092.75;8362605;23;20264;-77
2023/12/13 08:19:38;;;;;;;3.17;2.47;;;;;;;13.57;58.14;97106.00;8361569;23;20220;-76
2023/12/13 08:23:03;;;;;;;2.60;2.00;;;;;;;13.10;59.33;97119.56;8360148;23;20280;-76
2023/12/13 08:26:25;;;;;;;2.20;2.00;;;;;;;13.87;57.82;97125.84;8375261;23;20198;-77
2023/12/13 08:29:47;;;;;;;2.07;1.97;;;;;;;14.10;57.11;97130.00;8361878;23;20186;-77
2023/12/13 08:33:10;;;;;;;3.63;2.00;;;;;;;13.98;57.48;97122.09;8363330;23;20295;-79
2023/12/13 08:36:31;;;;;;;2.83;2.33;;;;;;;14.17;56.93;97111.59;8367052;23;20190;-77
2023/12/13 08:39:53;;;;;;;2.70;2.10;;;;;;;13.82;58.04;97114.22;8363714;23;20831;-77
2023/12/13 08:43:14;;;;;;;3.83;2.07;;;;;;;13.91;57.64;97112.59;8361550;23;20205;-78
2023/12/13 08:46:35;;;;;;;2.33;2.13;;;;;;;13.76;58.52;97120.69;8361458;23;20214;-79
2023/12/13 08:49:58;;;;;;;3.03;2.00;;;;;;;14.05;57.81;97119.16;8359764;23;20220;-77
2023/12/13 08:53:20;;;;;;;2.77;2.10;;;;;;;14.18;57.56;97116.75;8362776;23;20312;-77
2023/12/13 08:56:41;;;;;;;2.07;1.97;;;;;;;14.14;57.38;97102.09;8378579;23;20256;-77
2023/12/13 09:00:03;;;;;;;3.30;2.23;;;;;;;14.00;57.63;97095.56;8363199;23;20353;-78
2023/12/13 09:03:25;;;;;;;3.87;2.13;;;;;;;13.99;58.26;97118.31;8363347;23;20186;-78
2023/12/13 09:06:47;;;;;;;3.20;2.30;;;;;;;14.09;58.23;97102.06;8361333;23;20243;-78
2023/12/13 09:10:09;;;;;;;2.10;1.97;;;;;;;14.15;58.22;97109.13;8363173;23;20291;-78
2023/12/13 09:13:31;;;;;;;3.67;2.23;;;;;;;13.81;58.64;97097.13;8366115;23;20204;-78
2023/12/13 09:16:52;;;;;;;3.03;2.20;;;;;;;14.02;58.44;97087.97;8366234;23;20189;-77
2023/12/13 09:20:15;;;;;;;2.80;2.43;;;;;;;14.14;58.35;97102.09;8363589;23;20287;-77
2023/12/13 09:23:40;;;;;;;4.07;2.87;;;;;;;14.30;58.13;97100.25;8364363;23;20186;-77
2023/12/13 09:27:02;;;;;;;3.63;2.30;;;;;;;14.38;57.92;97102.41;8364923;23;20185;-76
2023/12/13 09:30:23;;;;;;;3.57;2.03;;;;;;;14.39;58.12;97102.16;8364101;23;20682;-77
2023/12/13 09:33:45;;;;;;;5.03;2.20;;;;;;;14.17;57.65;97081.78;8364760;23;20311;-78
2023/12/13 09:37:07;;;;;;;3.03;2.10;;;;;;;14.45;58.22;97109.19;8378702;23;20174;-77
2023/12/13 09:40:30;;;;;;;3.07;2.20;;;;;;;14.30;58.15;97117.34;8365043;23;20215;-77
2023/12/13 09:43:53;;;;;;;3.17;2.20;;;;;;;14.45;57.65;97119.25;8363906;23;20245;-78
2023/12/13 09:47:17;;;;;;;5.00;2.40;;;;;;;14.52;57.81;97125.22;8373136;23;20206;-77
2023/12/13 09:50:38;;;;;;;2.13;1.97;;;;;;;14.40;57.76;97128.16;8374876;23;20283;-79
2023/12/13 09:54:01;;;;;;;2.60;2.30;;;;;;;14.45;58.18;97139.03;8370741;23;20193;-77
2023/12/13 09:57:24;;;;;;;4.80;2.90;;;;;;;14.53;58.57;97135.78;8368483;23;20186;-78
2023/12/13 10:00:45;;;;;;;5.07;2.87;;;;;;;14.46;58.16;97120.88;8369767;23;20217;-78
2023/12/13 10:04:07;;;;;;;3.70;2.43;;;;;;;14.60;58.14;97121.94;8371059;23;20185;-78
2023/12/13 10:07:29;;;;;;;5.93;2.70;;;;;;;14.55;57.63;97070.41;8371748;23;20209;-79
2023/12/13 10:10:50;;;;;;;5.07;2.23;;;;;;;14.88;57.33;97134.97;8371443;23;20580;-78
2023/12/13 10:14:13;;;;;;;3.30;2.40;;;;;;;14.58;57.25;97124.13;8369486;23;20271;-79
2023/12/13 10:17:35;;;;;;;4.67;2.37;;;;;;;14.54;56.97;97110.28;8370626;23;20264;-79
2023/12/13 10:20:56;;;;;;;5.87;2.70;;;;;;;15.02;57.33;97139.56;8365465;23;20283;-80
2023/12/13 10:24:18;;;;;;;5.93;2.73;;;;;;;15.11;57.54;97112.69;8366290;23;20649;-79
2023/12/13 10:27:41;;;;;;;3.47;2.70;;;;;;;14.98;56.98;97080.69;8365798;23;20205;-79
2023/12/13 10:31:04;;;;;;;4.07;2.63;;;;;;;15.33;56.44;97127.59;8364167;23;20571;-79
2023/12/13 10:34:26;;;;;;;5.23;2.50;;;;;;;15.40;56.64;97122.69;8367205;23;20190;-79
2023/12/13 10:37:48;;;;;;;3.07;2.53;;;;;;;15.50;56.70;97121.81;8366146;23;20313;-79
2023/12/13 10:41:11;;;;;;;4.57;2.33;;;;;;;15.58;56.65;97116.63;8366439;23;20221;-78
2023/12/13 10:44:34;;;;;;;4.90;2.73;;;;;;;15.28;57.32;97115.91;8367673;23;20190;-80
2023/12/13 10:48:01;;;;;;;4.53;2.40;;;;;;;15.43;56.57;97108.56;8365053;23;20748;-79
2023/12/13 10:51:22;;;;;;;4.00;2.83;;;;;;;15.05;57.24;97113.78;8362979;23;20233;-78
2023/12/13 10:54:45;;;;;;;4.33;2.77;;;;;;;15.07;57.12;97093.44;8363256;23;20268;-78
2023/12/13 10:58:06;;;;;;;4.43;2.40;;;;;;;15.53;56.08;97105.81;8362571;23;20272;-79
2023/12/13 11:01:28;;;;;;;5.03;3.43;;;;;;;15.82;56.00;97093.16;8360876;23;20203;-78
2023/12/13 11:04:51;;;;;;;3.17;2.20;;;;;;;16.00;54.54;97098.00;8361707;23;20267;-78
2023/12/13 11:08:17;;;;;;;3.33;2.30;;;;;;;16.23;53.72;97091.84;8365927;23;20345;-78
2023/12/13 11:11:38;;;;;;;4.20;2.50;;;;;;;16.24;53.35;97101.63;8362647;23;20656;-78
2023/12/13 11:15:03;;;;;;;6.20;2.57;;;;;;;16.25;54.29;97105.97;8359833;23;20210;-78
2023/12/13 11:18:25;;;;;;;2.87;2.07;;;;;;;16.56;54.64;97101.97;8362025;23;20180;-78
2023/12/13 11:21:48;;;;;;;4.13;2.40;;;;;;;17.14;51.85;97105.53;8362843;23;20345;-78
2023/12/13 11:25:10;;;;;;;6.77;3.03;;;;;;;15.21;55.97;97115.38;8364740;23;20206;-77
2023/12/13 11:28:34;;;;;;;4.83;2.40;;;;;;;16.48;54.16;97101.75;8362576;23;20213;-78
2023/12/13 11:31:58;;;;;;;5.03;2.10;;;;;;;17.62;52.01;97090.84;8362271;23;20262;-80
2023/12/13 11:35:21;;;;;;;4.43;2.40;;;;;;;17.01;51.53;97090.69;8361074;23;20267;-78
2023/12/13 11:38:44;;;;;;;2.40;1.90;;;;;;;17.20;52.29;97083.41;8362429;23;20607;-80
2023/12/13 11:42:07;;;;;;;3.17;1.77;;;;;;;17.69;49.73;97078.50;8362649;23;20561;-80
2023/12/13 11:45:29;;;;;;;3.73;1.90;;;;;;;17.59;49.66;97089.53;8365816;23;20183;-78
2023/12/13 11:48:50;;;;;;;3.63;2.40;;;;;;;18.21;48.95;97083.00;8362917;23;20297;-78
2023/12/13 11:52:12;;;;;;;3.33;2.10;;;;;;;18.27;48.40;97079.09;8364140;23;20331;-78
2023/12/13 11:55:36;;;;;;;2.50;2.27;;;;;;;17.67;50.53;97083.44;8362245;23;20282;-78
2023/12/13 11:58:59;;;;;;;3.03;2.00;;;;;;;17.41;50.77;97081.31;8361600;23;20312;-77
2023/12/13 12:02:20;;;;;;;4.70;2.37;;;;;;;17.62;51.11;97075.31;8361802;23;20277;-79
2023/12/13 12:05:42;;;;;;;3.93;2.43;;;;;;;18.06;49.78;97064.94;8362874;23;20220;-79
2023/12/13 12:09:05;;;;;;;4.83;2.53;;;;;;;18.08;48.44;97046.34;8362002;23;20207;-79
2023/12/13 12:12:28;;;;;;;3.03;2.20;;;;;;;17.60;49.95;97054.91;8361421;23;20253;-78
2023/12/13 12:15:50;;;;;;;6.10;2.50;;;;;;;17.36;49.86;97044.00;8363272;23;20215;-78
2023/12/13 12:19:11;;;;;;;4.13;2.50;;;;;;;17.15;49.84;97033.66;8361583;23;20270;-79
2023/12/13 12:22:36;;;;;;;4.70;2.57;;;;;;;17.43;50.52;97038.22;8361960;23;20253;-79
2023/12/13 12:25:57;;;;;;;3.73;2.57;;;;;;;17.19;51.11;97043.66;8362727;23;20554;-78
2023/12/13 12:29:20;;;;;;;2.60;2.13;;;;;;;17.09;51.33;97049.22;8359800;23;20236;-79
2023/12/13 12:32:42;;;;;;;5.47;2.60;;;;;;;17.33;51.24;97022.00;8363098;23;20537;-79
2023/12/13 12:36:04;;;;;;;3.77;2.20;;;;;;;17.56;49.74;97019.25;8362552;23;20220;-79
2023/12/13 12:39:25;;;;;;;3.37;2.10;;;;;;;17.53;49.39;97017.13;8361399;23;20346;-79
2023/12/13 12:42:47;;;;;;;4.50;2.50;;;;;;;17.28;50.40;97020.13;8374194;23;20297;-78
2023/12/13 12:46:11;;;;;;;2.57;2.37;;;;;;;16.87;51.17;96969.16;8359438;23;20733;-79
2023/12/13 12:49:33;;;;;;;8.10;2.63;;;;;;;17.10;51.81;97026.31;8360318;23;20215;-78
2023/12/13 12:52:54;;;;;;;3.80;2.30;;;;;;;17.27;50.81;97012.25;8362763;23;20230;-79
2023/12/13 12:56:16;;;;;;;3.40;2.17;;;;;;;17.17;51.28;97018.63;8362907;23;20261;-77
2023/12/13 12:59:37;;;;;;;3.27;2.20;;;;;;;17.55;51.11;97028.53;8361897;23;20628;-77
2023/12/13 13:03:04;;;;;;;2.30;2.10;;;;;;;17.39;51.24;97024.38;8360894;23;20234;-77
2023/12/13 13:06:25;;;;;;;2.60;2.40;;;;;;;17.75;50.29;97027.47;8361170;23;20178;-77
2023/12/13 13:09:47;;;;;;;3.67;2.30;;;;;;;17.85;49.35;97008.22;8359673;23;20212;-77
2023/12/13 13:13:08;;;;;;;2.57;2.00;;;;;;;17.67;50.02;97009.84;8359389;23;20341;-77
2023/12/13 13:16:30;;;;;;;2.87;2.10;;;;;;;17.21;51.09;97013.44;8362808;23;20561;-79
2023/12/13 13:19:53;;;;;;;3.50;3.03;;;;;;;17.07;50.52;97009.75;8362769;23;20190;-78
2023/12/13 13:23:14;;;;;;;3.63;2.47;;;;;;;17.23;51.01;97013.94;8361628;23;20192;-77
2023/12/13 13:26:36;;;;;;;1.87;1.67;;;;;;;16.94;50.68;97016.72;8362344;23;20317;-77
2023/12/13 13:29:58;;;;;;;2.43;1.70;;;;;;;16.58;50.96;97022.78;8361358;23;20207;-77
2023/12/13 13:33:19;;;;;;;2.70;1.73;;;;;;;16.65;51.19;97015.94;8362797;23;20222;-77
2023/12/13 13:36:42;;;;;;;3.67;1.63;;;;;;;16.66;50.84;97003.13;8362933;23;20191;-77
2023/12/13 13:40:04;;;;;;;2.40;2.13;;;;;;;16.15;51.81;96961.94;8360150;23;20293;-77
2023/12/13 13:43:27;;;;;;;3.47;2.30;;;;;;;16.32;52.13;96988.69;8360727;23;20210;-79
2023/12/13 13:46:50;;;;;;;2.83;2.00;;;;;;;16.41;52.36;96985.16;8360299;23;20186;-77
2023/12/13 13:50:12;;;;;;;2.63;2.10;;;;;;;16.40;52.92;96991.66;8357183;23;20655;-77
2023/12/13 13:53:35;;;;;;;4.97;2.07;;;;;;;16.26;53.09;97004.25;8361211;23;20271;-78
2023/12/13 13:56:56;;;;;;;3.57;1.80;;;;;;;16.29;52.38;97008.31;8362998;23;20271;-77
2023/12/13 14:00:20;;;;;;;2.47;1.90;;;;;;;16.24;52.72;97011.09;8362377;23;20230;-78
2023/12/13 14:03:42;;;;;;;3.90;1.90;;;;;;;16.08;53.71;97020.44;8362319;23;20229;-78
2023/12/13 14:07:05;;;;;;;2.20;2.00;;;;;;;14.92;54.14;97062.78;8362215;23;20824;-77
2023/12/13 14:10:28;;;;;;;2.17;1.90;;;;;;;13.15;59.41;97081.72;8361820;23;20516;-77
2023/12/13 14:13:50;;;;;;;2.00;1.80;;;;;;;12.28;62.33;97080.53;8363683;23;20219;-76
2023/12/13 14:17:11;;;;;;;2.87;1.90;;;;;;;12.42;62.64;97057.41;8363310;23;20185;-78
2023/12/13 14:20:33;;;;;;;2.73;1.83;;;;;;;12.54;61.89;97098.59;8373319;23;20237;-78
2023/12/13 14:23:54;;;;;;;2.40;2.20;;;;;;;13.02;60.83;97097.59;8362208;23;20263;-77
2023/12/13 14:27:18;;;;;;;4.40;2.40;;;;;;;13.19;60.78;97092.81;8363630;23;20235;-78
2023/12/13 14:30:40;;;;;;;3.23;2.50;;;;;;;13.17;60.69;97092.28;8362341;23;20296;-76
2023/12/13 14:34:02;;;;;;;3.30;2.40;;;;;;;13.36;60.31;97117.81;8362771;23;20212;-77
2023/12/13 14:37:23;;;;;;;2.50;2.30;;;;;;;13.18;60.87;97108.25;8361030;23;20210;-76
2023/12/13 14:40:46;;;;;;;3.63;2.40;;;;;;;13.59;60.47;97129.03;8361659;23;20288;-77
2023/12/13 14:44:09;;;;;;;4.40;2.53;;;;;;;13.38;60.48;97130.00;8370012;23;20190;-77
2023/12/13 14:47:31;;;;;;;2.40;2.17;;;;;;;12.86;61.76;97122.91;8363561;23;20186;-77
2023/12/13 14:50:53;;;;;;;2.07;1.73;;;;;;;12.91;61.79;97112.09;8361784;23;20209;-78
2023/12/13 14:54:16;;;;;;;2.23;2.00;;;;;;;12.28;63.02;97114.84;8361623;23;20240;-77
2023/12/13 14:57:38;;;;;;;5.07;2.37;;;;;;;12.73;62.81;97121.44;8361849;23;20192;-77
2023/12/13 15:01:01;;;;;;;2.83;2.13;;;;;;;12.67;62.32;97116.25;8362247;23;20288;-78
2023/12/13 15:04:22;;;;;;;3.97;2.23;;;;;;;12.70;62.49;97115.75;8363257;23;20186;-77
2023/12/13 15:07:46;;;;;;;2.87;2.30;;;;;;;13.12;61.45;97127.41;8360688;23;20232;-78
2023/12/13 15:11:08;;;;;;;3.40;2.47;;;;;;;13.26;61.02;97110.44;8360514;23;20283;-77
2023/12/13 15:14:30;;;;;;;5.43;4.00;;;;;;;13.66;59.62;97104.41;8361869;23;20271;-77
2023/12/13 15:17:53;;;;;;;4.53;4.07;;;;;;;13.96;58.43;97118.84;8363190;23;20635;-78
2023/12/13 15:21:14;;;;;;;3.43;2.30;;;;;;;13.85;58.71;97135.31;8361905;23;20212;-78
2023/12/13 15:24:36;;;;;;;15.97;12.13;;;;;;;13.78;59.36;97127.47;8360809;23;20361;-76
2023/12/13 15:28:00;;;;;;;3.17;2.87;;;;;;;13.47;59.98;97136.56;8362805;23;20209;-78
2023/12/13 15:31:23;;;;;;;2.70;2.50;;;;;;;13.42;60.75;97149.22;8360642;23;20619;-78
2023/12/13 15:34:46;;;;;;;3.37;2.60;;;;;;;13.44;60.52;97152.47;8361857;23;20185;-78
2023/12/13 15:38:08;;;;;;;2.60;2.40;;;;;;;13.25;60.93;97151.31;8366217;23;20217;-77
2023/12/13 15:41:29;;;;;;;4.57;2.60;;;;;;;13.58;60.19;97145.53;8364093;23;20233;-78
2023/12/13 15:44:50;;;;;;;3.63;2.20;;;;;;;13.06;60.86;97155.50;8365943;23;20316;-79
2023/12/13 15:48:12;;;;;;;2.80;2.30;;;;;;;13.16;61.80;97153.69;8365527;23;20650;-77
2023/12/13 15:51:35;;;;;;;2.63;2.40;;;;;;;13.67;60.45;97163.72;8367310;23;20273;-78